createdAt,value
2018-06-19T00:02:14.937Z,2.80
2018-06-19T00:04:43.256Z,2.60
2018-06-19T00:07:11.416Z,3.07
2018-06-19T00:09:39.896Z,2.67
2018-06-19T00:12:08.020Z,2.50
2018-06-19T00:14:36.136Z,3.70
2018-06-19T00:17:04.282Z,3.20
2018-06-19T00:19:35.295Z,2.90
2018-06-19T00:22:06.877Z,2.43
2018-06-19T00:24:36.012Z,2.37
2018-06-19T00:27:04.195Z,3.40
2018-06-19T00:29:32.342Z,3.00
2018-06-19T00:32:01.054Z,2.60
2018-06-19T00:34:30.481Z,2.23
2018-06-19T00:36:59.270Z,2.73
2018-06-19T00:39:27.406Z,3.07
2018-06-19T00:41:55.726Z,2.57
2018-06-19T00:44:24.252Z,3.10
2018-06-19T00:46:53.326Z,3.17
2018-06-19T00:49:22.536Z,2.87
2018-06-19T00:51:50.787Z,2.60
2018-06-19T00:54:20.458Z,2.77
2018-06-19T00:56:56.354Z,2.90
2018-06-19T00:59:24.532Z,2.57
2018-06-19T01:01:54.368Z,2.70
2018-06-19T01:04:22.679Z,2.70
2018-06-19T01:06:51.326Z,2.63
2018-06-19T01:09:19.860Z,2.80
2018-06-19T01:11:48.102Z,2.80
2018-06-19T01:14:16.362Z,3.03
2018-06-19T01:16:44.544Z,3.20
2018-06-19T01:19:12.661Z,3.20
2018-06-19T01:21:40.802Z,2.60
2018-06-19T01:24:09.449Z,3.00
2018-06-19T01:26:37.661Z,2.60
2018-06-19T01:29:06.023Z,2.87
2018-06-19T01:31:34.158Z,3.07
2018-06-19T01:34:02.383Z,3.40
2018-06-19T01:36:30.583Z,3.40
2018-06-19T01:38:58.938Z,3.40
2018-06-19T01:41:27.113Z,3.30
2018-06-19T01:43:55.497Z,3.03
2018-06-19T01:46:23.659Z,3.20
2018-06-19T01:48:52.637Z,2.90
2018-06-19T01:51:20.804Z,3.17
2018-06-19T01:53:49.964Z,3.30
2018-06-19T01:56:18.883Z,2.77
2018-06-19T01:58:47.023Z,3.70
2018-06-19T02:01:15.211Z,3.50
2018-06-19T02:03:43.362Z,3.20
2018-06-19T02:06:14.175Z,3.30
2018-06-19T02:08:42.369Z,3.80
2018-06-19T02:11:13.896Z,3.60
2018-06-19T02:13:42.176Z,3.93
2018-06-19T02:16:12.991Z,3.10
2018-06-19T02:18:41.147Z,3.93
2018-06-19T02:21:09.268Z,3.60
2018-06-19T02:23:37.419Z,3.30
2018-06-19T02:26:05.651Z,3.90
2018-06-19T02:28:33.829Z,3.30
2018-06-19T02:31:01.973Z,3.67
2018-06-19T02:33:30.151Z,4.00
2018-06-19T02:35:58.427Z,3.67
2018-06-19T02:38:26.604Z,4.00
2018-06-19T02:40:54.779Z,3.97
2018-06-19T02:43:22.904Z,3.20
2018-06-19T02:45:51.407Z,3.80
2018-06-19T02:48:19.745Z,3.33
2018-06-19T02:50:47.875Z,4.03
2018-06-19T02:53:17.439Z,3.57
2018-06-19T02:55:45.632Z,3.50
2018-06-19T02:58:13.933Z,3.90
2018-06-19T03:00:42.119Z,3.77
2018-06-19T03:03:10.357Z,3.33
2018-06-19T03:05:38.543Z,3.97
2018-06-19T03:08:07.104Z,3.43
2018-06-19T03:10:35.267Z,3.50
2018-06-19T03:13:03.419Z,3.70
2018-06-19T03:15:31.694Z,4.37
2018-06-19T03:17:59.882Z,3.43
2018-06-19T03:20:28.273Z,3.10
2018-06-19T03:22:56.465Z,3.90
2018-06-19T03:25:24.495Z,3.60
2018-06-19T03:27:53.069Z,3.57
2018-06-19T03:30:21.224Z,3.63
2018-06-19T03:32:51.401Z,3.50
2018-06-19T03:35:19.605Z,3.63
2018-06-19T03:37:47.545Z,3.80
2018-06-19T03:40:15.751Z,3.90
2018-06-19T03:42:44.006Z,4.70
2018-06-19T03:45:12.206Z,3.80
2018-06-19T03:47:40.391Z,4.30
2018-06-19T03:50:08.597Z,4.03
2018-06-19T03:52:37.027Z,4.27
2018-06-19T03:55:05.534Z,4.80
2018-06-19T03:57:33.686Z,4.33
2018-06-19T04:00:01.937Z,5.63
2018-06-19T04:02:30.108Z,4.90
2018-06-19T04:04:58.257Z,4.07
2018-06-19T04:07:26.473Z,3.90
2018-06-19T04:09:55.117Z,3.90
2018-06-19T04:12:23.288Z,4.27
2018-06-19T04:14:51.475Z,4.73
2018-06-19T04:17:23.502Z,3.83
2018-06-19T04:19:52.737Z,3.63
2018-06-19T04:22:20.722Z,3.70
2018-06-19T04:24:49.079Z,4.40
2018-06-19T04:27:17.324Z,4.53
2018-06-19T04:29:45.566Z,5.50
2018-06-19T04:32:13.979Z,4.70
2018-06-19T04:34:42.112Z,5.30
2018-06-19T04:37:10.258Z,5.37
2018-06-19T04:39:39.343Z,5.03
2018-06-19T04:42:07.685Z,5.87
2018-06-19T04:44:36.000Z,5.23
2018-06-19T04:47:05.302Z,4.90
2018-06-19T04:49:35.237Z,5.60
2018-06-19T04:52:04.138Z,6.17
2018-06-19T04:54:33.075Z,5.10
2018-06-19T04:57:01.281Z,5.03
2018-06-19T04:59:30.402Z,5.07
2018-06-19T05:01:58.580Z,4.63
2018-06-19T05:04:26.719Z,5.03
2018-06-19T05:06:54.890Z,4.70
2018-06-19T05:09:23.024Z,4.53
2018-06-19T05:11:51.228Z,5.20
2018-06-19T05:14:19.984Z,5.13
2018-06-19T05:16:49.575Z,4.47
2018-06-19T05:19:18.697Z,4.33
2018-06-19T05:21:47.639Z,4.27
2018-06-19T05:24:15.831Z,4.77
2018-06-19T05:26:43.978Z,4.23
2018-06-19T05:29:12.206Z,4.33
2018-06-19T05:31:40.396Z,4.80
2018-06-19T05:34:08.646Z,5.20
2018-06-19T05:36:37.774Z,5.10
2018-06-19T05:39:09.043Z,5.03
2018-06-19T05:41:37.415Z,4.27
2018-06-19T05:44:06.236Z,5.10
2018-06-19T05:46:34.771Z,5.10
2018-06-19T05:49:03.097Z,5.50
2018-06-19T05:51:31.308Z,5.80
2018-06-19T05:53:59.875Z,5.97
2018-06-19T05:56:28.273Z,5.80
2018-06-19T05:58:56.449Z,6.30
2018-06-19T06:01:24.620Z,6.83
2018-06-19T06:03:52.963Z,6.50
2018-06-19T06:06:21.657Z,5.50
2018-06-19T06:08:49.808Z,6.53
2018-06-19T06:11:19.041Z,6.73
2018-06-19T06:13:47.223Z,6.90
2018-06-19T06:16:15.400Z,7.03
2018-06-19T06:18:43.619Z,7.53
2018-06-19T06:21:11.839Z,6.47
2018-06-19T06:23:40.125Z,7.20
2018-06-19T06:26:08.273Z,7.13
2018-06-19T06:28:36.447Z,7.70
2018-06-19T06:31:04.660Z,7.53
2018-06-19T06:33:32.843Z,7.57
2018-06-19T06:36:01.062Z,7.80
2018-06-19T06:38:29.258Z,7.83
2018-06-19T06:40:57.412Z,8.00
2018-06-19T06:43:25.588Z,9.33
2018-06-19T06:45:54.744Z,7.83
2018-06-19T06:48:22.938Z,7.80
2018-06-19T06:50:51.126Z,8.43
2018-06-19T06:53:19.336Z,7.40
2018-06-19T06:55:47.537Z,7.10
2018-06-19T06:58:15.522Z,6.70
2018-06-19T07:00:43.788Z,6.80
2018-06-19T07:03:12.021Z,7.07
2018-06-19T07:05:40.256Z,7.60
2018-06-19T07:08:09.630Z,5.80
2018-06-19T07:10:37.847Z,7.00
2018-06-19T07:13:07.075Z,6.60
2018-06-19T07:15:35.403Z,6.20
2018-06-19T07:18:03.464Z,7.03
2018-06-19T07:20:31.819Z,6.87
2018-06-19T07:23:00.052Z,6.30
2018-06-19T07:25:28.748Z,6.73
2018-06-19T07:27:56.723Z,6.60
2018-06-19T07:30:25.044Z,7.60
2018-06-19T07:32:54.640Z,5.80
2018-06-19T07:35:23.687Z,5.40
2018-06-19T07:37:52.283Z,4.73
2018-06-19T07:40:20.847Z,4.90
2018-06-19T07:42:49.680Z,5.60
2018-06-19T07:45:17.963Z,5.63
2018-06-19T07:47:46.132Z,5.47
2018-06-19T07:50:14.566Z,5.00
2018-06-19T07:52:43.945Z,5.53
2018-06-19T07:55:12.246Z,5.87
2018-06-19T07:57:40.436Z,6.10
2018-06-19T08:00:09.202Z,6.17
2018-06-19T08:02:37.360Z,5.50
2018-06-19T08:05:05.589Z,6.07
2018-06-19T08:07:33.834Z,4.90
2018-06-19T08:10:01.851Z,5.30
2018-06-19T08:12:30.118Z,4.90
2018-06-19T08:14:58.358Z,4.27
2018-06-19T08:17:26.595Z,4.27
2018-06-19T08:19:58.420Z,4.90
2018-06-19T08:22:27.188Z,4.07
2018-06-19T08:24:55.405Z,4.77
2018-06-19T08:27:23.650Z,4.70
2018-06-19T08:29:51.840Z,5.63
2018-06-19T08:32:20.070Z,4.80
2018-06-19T08:34:48.384Z,5.47
2018-06-19T08:37:16.687Z,4.53
2018-06-19T08:39:44.896Z,5.13
2018-06-19T08:42:13.033Z,5.10
2018-06-19T08:44:42.760Z,5.00
2018-06-19T08:47:10.950Z,5.20
2018-06-19T08:49:39.142Z,5.10
2018-06-19T08:52:07.520Z,4.43
2018-06-19T08:54:35.734Z,4.70
2018-06-19T08:57:03.917Z,4.90
2018-06-19T08:59:32.210Z,4.67
2018-06-19T09:02:00.648Z,4.80
2018-06-19T09:04:28.998Z,4.80
2018-06-19T09:06:57.276Z,3.57
2018-06-19T09:09:25.373Z,3.13
2018-06-19T09:11:53.576Z,3.13
2018-06-19T09:14:22.769Z,3.30
2018-06-19T09:16:53.397Z,3.40
2018-06-19T09:19:21.919Z,4.33
2018-06-19T09:21:50.187Z,3.73
2018-06-19T09:24:19.584Z,3.93
2018-06-19T09:26:47.734Z,3.67
2018-06-19T09:29:15.927Z,3.40
2018-06-19T09:31:44.994Z,3.70
2018-06-19T09:34:13.201Z,3.83
2018-06-19T09:36:42.985Z,4.23
2018-06-19T09:39:13.062Z,3.60
2018-06-19T09:41:41.917Z,3.50
2018-06-19T09:44:10.841Z,3.37
2018-06-19T09:46:41.168Z,3.90
2018-06-19T09:49:10.282Z,3.27
2018-06-19T09:51:39.523Z,3.83
2018-06-19T09:54:07.493Z,3.20
2018-06-19T09:56:35.701Z,3.17
2018-06-19T09:59:04.297Z,2.63
2018-06-19T10:01:32.573Z,3.17
2018-06-19T10:04:02.233Z,2.63
2018-06-19T10:06:30.932Z,3.77
2018-06-19T10:08:58.894Z,3.47
2018-06-19T10:11:27.049Z,3.90
2018-06-19T10:13:55.213Z,3.33
2018-06-19T10:16:23.415Z,3.60
2018-06-19T10:18:51.650Z,2.20
2018-06-19T10:21:20.545Z,3.00
2018-06-19T10:23:50.306Z,2.70
2018-06-19T10:26:18.643Z,2.17
2018-06-19T10:28:46.926Z,2.63
2018-06-19T10:31:14.975Z,2.30
2018-06-19T10:33:43.517Z,3.10
2018-06-19T10:36:11.856Z,2.93
2018-06-19T10:38:40.078Z,4.40
2018-06-19T10:41:09.644Z,3.30
2018-06-19T10:43:38.947Z,2.83
2018-06-19T10:46:07.156Z,2.67
2018-06-19T10:48:35.181Z,2.60
2018-06-19T10:51:03.566Z,3.30
2018-06-19T10:53:31.790Z,2.67
2018-06-19T10:56:00.222Z,3.20
2018-06-19T10:58:28.395Z,2.70
2018-06-19T11:00:56.620Z,2.50
2018-06-19T11:03:24.773Z,2.97
2018-06-19T11:05:52.913Z,3.23
2018-06-19T11:08:22.178Z,2.63
2018-06-19T11:10:50.269Z,2.37
2018-06-19T11:13:19.532Z,2.73
2018-06-19T11:15:47.696Z,2.00
2018-06-19T11:18:17.480Z,4.20
2018-06-19T11:20:45.639Z,2.33
2018-06-19T11:23:13.774Z,1.90
2018-06-19T11:25:42.588Z,2.50
2018-06-19T11:28:10.814Z,2.20
2018-06-19T11:30:39.134Z,2.40
2018-06-19T11:33:07.333Z,2.27
2018-06-19T11:35:35.499Z,2.17
2018-06-19T11:38:03.715Z,2.20
2018-06-19T11:40:31.894Z,2.10
2018-06-19T11:43:00.202Z,2.10
2018-06-19T11:45:28.403Z,2.27
2018-06-19T11:47:56.690Z,2.30
2018-06-19T11:50:24.842Z,2.57
2018-06-19T11:52:53.224Z,2.43
2018-06-19T11:55:21.649Z,2.20
2018-06-19T11:57:49.851Z,2.07
2018-06-19T12:00:18.094Z,2.00
2018-06-19T12:02:46.254Z,2.53
2018-06-19T12:05:14.440Z,2.30
2018-06-19T12:07:44.332Z,2.83
2018-06-19T12:10:12.500Z,2.60
2018-06-19T12:12:41.034Z,3.00
2018-06-19T12:15:09.198Z,2.70
2018-06-19T12:17:37.500Z,2.20
2018-06-19T12:20:06.455Z,2.67
2018-06-19T12:22:34.602Z,2.67
2018-06-19T12:25:02.965Z,2.43
2018-06-19T12:27:31.107Z,2.23
2018-06-19T12:29:59.287Z,2.00
2018-06-19T12:32:28.419Z,3.33
2018-06-19T12:34:57.797Z,2.20
2018-06-19T12:37:27.363Z,2.30
2018-06-19T12:39:55.469Z,2.27
2018-06-19T12:42:23.733Z,2.30
2018-06-19T12:44:52.018Z,2.80
2018-06-19T12:47:20.223Z,3.13
2018-06-19T12:49:59.688Z,2.97
2018-06-19T12:52:39.517Z,2.80
2018-06-19T12:55:17.491Z,2.90
2018-06-19T12:57:45.860Z,2.50
2018-06-19T13:00:14.049Z,3.20
2018-06-19T13:02:57.839Z,3.30
2018-06-19T13:05:37.775Z,2.60
2018-06-19T13:08:06.101Z,2.37
2018-06-19T13:10:34.287Z,2.20
2018-06-19T13:14:25.737Z,7.00
2018-06-19T13:17:05.407Z,3.67
2018-06-19T13:19:45.193Z,3.77
2018-06-19T13:22:16.054Z,3.37
2018-06-19T13:24:45.005Z,2.80
2018-06-19T13:27:13.202Z,3.33
2018-06-19T13:29:58.767Z,3.07
2018-06-19T13:32:27.306Z,2.47
2018-06-19T13:34:56.165Z,7.00
2018-06-19T13:37:28.547Z,3.30
2018-06-19T13:41:18.270Z,3.10
2018-06-19T13:43:59.138Z,2.97
2018-06-19T13:46:34.417Z,3.23
2018-06-19T13:49:04.376Z,2.57
2018-06-19T13:51:32.653Z,3.80
2018-06-19T13:54:00.811Z,3.20
2018-06-19T13:57:45.831Z,3.67
2018-06-19T14:00:17.735Z,3.60
2018-06-19T14:02:46.041Z,2.77
2018-06-19T14:05:17.028Z,3.13
2018-06-19T14:08:09.254Z,3.03
2018-06-19T14:10:51.513Z,3.40
2018-06-19T14:13:19.679Z,2.80
2018-06-19T14:15:50.068Z,3.83
2018-06-19T14:18:19.616Z,2.97
2018-06-19T14:20:47.839Z,2.90
2018-06-19T14:23:15.978Z,3.03
2018-06-19T14:25:44.364Z,3.23
2018-06-19T14:28:12.537Z,3.00
2018-06-19T14:30:40.771Z,2.90
2018-06-19T14:33:09.094Z,2.60
2018-06-19T14:35:38.332Z,3.00
2018-06-19T14:38:06.638Z,3.10
2018-06-19T14:40:34.858Z,3.27
2018-06-19T14:43:04.129Z,2.80
2018-06-19T14:45:33.223Z,2.77
2018-06-19T14:48:02.251Z,2.70
2018-06-19T14:50:30.219Z,2.53
2018-06-19T14:52:58.503Z,2.83
2018-06-19T14:55:26.905Z,2.67
2018-06-19T14:57:55.571Z,3.77
2018-06-19T15:00:25.158Z,2.90
2018-06-19T15:02:53.698Z,6.40
2018-06-19T15:05:21.914Z,3.10
2018-06-19T15:07:52.859Z,2.17
2018-06-19T15:10:21.470Z,4.33
2018-06-19T15:12:49.721Z,3.90
2018-06-19T15:15:17.717Z,3.37
2018-06-19T15:17:45.890Z,3.97
2018-06-19T15:20:14.268Z,3.00
2018-06-19T15:22:42.461Z,3.57
2018-06-19T15:25:10.603Z,4.20
2018-06-19T15:27:38.877Z,3.40
2018-06-19T15:30:07.189Z,3.47
2018-06-19T15:32:35.429Z,3.43
2018-06-19T15:35:03.749Z,3.10
2018-06-19T15:37:31.959Z,3.27
2018-06-19T15:40:01.599Z,4.33
2018-06-19T15:42:30.843Z,4.20
2018-06-19T15:44:59.107Z,3.00
2018-06-19T15:47:28.514Z,3.97
2018-06-19T15:49:56.710Z,4.57
2018-06-19T15:52:25.246Z,3.93
2018-06-19T15:54:53.754Z,4.17
2018-06-19T15:57:21.923Z,3.90
2018-06-19T15:59:50.192Z,4.20
2018-06-19T16:02:19.810Z,4.40
2018-06-19T16:04:48.004Z,3.83
2018-06-19T16:07:16.152Z,3.43
2018-06-19T16:09:44.384Z,3.90
2018-06-19T16:12:12.664Z,2.90
2018-06-19T16:14:40.911Z,2.93
2018-06-19T16:17:09.844Z,3.20
2018-06-19T16:19:38.083Z,3.87
2018-06-19T16:22:06.519Z,3.27
2018-06-19T16:24:34.740Z,3.20
2018-06-19T16:27:02.969Z,3.13
2018-06-19T16:29:31.123Z,2.83
2018-06-19T16:31:59.377Z,2.43
2018-06-19T16:34:27.878Z,2.67
2018-06-19T16:36:56.861Z,2.87
2018-06-19T16:39:26.108Z,2.77
2018-06-19T16:41:54.405Z,3.00
2018-06-19T16:44:24.312Z,3.60
2018-06-19T16:46:52.540Z,2.87
2018-06-19T16:49:20.910Z,2.23
2018-06-19T16:51:49.126Z,2.70
2018-06-19T16:54:17.767Z,2.50
2018-06-19T16:56:46.118Z,2.90
2018-06-19T16:59:14.253Z,2.60
2018-06-19T17:01:42.494Z,2.60
2018-06-19T17:04:10.832Z,2.70
2018-06-19T17:06:39.734Z,2.60
2018-06-19T17:09:08.098Z,2.60
2018-06-19T17:11:36.279Z,2.47
2018-06-19T17:14:04.291Z,2.47
2018-06-19T17:16:33.594Z,3.23
2018-06-19T17:19:01.972Z,3.30
2018-06-19T17:21:30.157Z,2.43
2018-06-19T17:23:58.309Z,2.30
2018-06-19T17:26:26.682Z,2.40
2018-06-19T17:28:55.370Z,2.03
2018-06-19T17:31:23.487Z,4.17
2018-06-19T17:33:51.619Z,2.00
2018-06-19T17:36:19.626Z,2.23
2018-06-19T17:38:47.808Z,2.33
2018-06-19T17:41:16.043Z,1.70
2018-06-19T17:43:44.232Z,1.80
2018-06-19T17:46:12.557Z,2.57
2018-06-19T17:48:40.731Z,2.10
2018-06-19T17:51:09.048Z,2.40
2018-06-19T17:53:37.407Z,2.40
2018-06-19T17:56:05.695Z,2.20
2018-06-19T17:58:34.319Z,2.83
2018-06-19T18:01:03.125Z,2.43
2018-06-19T18:03:31.784Z,2.10
2018-06-19T18:05:59.942Z,2.30
2018-06-19T18:08:28.205Z,1.80
2018-06-19T18:10:57.954Z,2.20
2018-06-19T18:13:26.117Z,1.90
2018-06-19T18:15:54.582Z,2.33
2018-06-19T18:18:22.812Z,2.00
2018-06-19T18:20:52.309Z,2.33
2018-06-19T18:23:20.561Z,2.67
2018-06-19T18:25:48.873Z,2.00
2018-06-19T18:28:17.119Z,2.47
2018-06-19T18:30:46.989Z,2.60
2018-06-19T18:33:16.415Z,2.60
2018-06-19T18:35:44.632Z,2.60
2018-06-19T18:38:12.815Z,2.93
2018-06-19T18:40:42.753Z,2.33
2018-06-19T18:43:11.639Z,2.60
2018-06-19T18:45:39.863Z,2.80
2018-06-19T18:48:08.146Z,4.60
2018-06-19T18:50:36.459Z,2.80
2018-06-19T18:53:04.921Z,2.40
2018-06-19T18:55:33.244Z,2.37
2018-06-19T18:58:01.775Z,1.90
2018-06-19T19:00:29.995Z,2.60
2018-06-19T19:02:58.213Z,1.90
2018-06-19T19:05:26.429Z,2.73
2018-06-19T19:07:55.438Z,2.20
2018-06-19T19:10:29.071Z,2.30
2018-06-19T19:12:57.622Z,2.00
2018-06-19T19:15:31.430Z,2.10
2018-06-19T19:18:05.174Z,2.50
2018-06-19T19:20:33.378Z,2.17
2018-06-19T19:23:01.542Z,2.83
2018-06-19T19:25:29.754Z,2.80
2018-06-19T19:28:03.416Z,2.87
2018-06-19T19:30:31.579Z,2.20
2018-06-19T19:32:59.770Z,2.83
2018-06-19T19:35:28.553Z,4.27
2018-06-19T19:38:02.150Z,2.87
2018-06-19T19:40:30.284Z,2.60
2018-06-19T19:42:58.500Z,3.27
2018-06-19T19:45:26.726Z,3.20
2018-06-19T19:48:00.458Z,2.97
2018-06-19T19:50:28.475Z,2.37
2018-06-19T19:52:56.790Z,2.43
2018-06-19T19:55:25.194Z,3.10
2018-06-19T19:57:59.114Z,3.27
2018-06-19T20:00:27.804Z,2.50
2018-06-19T20:02:56.756Z,2.77
2018-06-19T20:05:25.416Z,3.37
2018-06-19T20:07:53.660Z,3.10
2018-06-19T20:10:22.132Z,3.37
2018-06-19T20:12:50.682Z,6.60
2018-06-19T20:15:19.442Z,6.70
2018-06-19T20:17:48.771Z,3.30
2018-06-19T20:20:16.940Z,13.03
2018-06-19T20:22:45.735Z,4.10
2018-06-19T20:25:14.625Z,3.27
2018-06-19T20:27:42.840Z,3.53
2018-06-19T20:30:11.067Z,4.10
2018-06-19T20:32:39.454Z,5.93
2018-06-19T20:35:08.504Z,3.60
2018-06-19T20:37:36.683Z,3.73
2018-06-19T20:40:04.988Z,3.80
2018-06-19T20:42:33.814Z,3.43
2018-06-19T20:45:01.919Z,3.77
2018-06-19T20:47:30.574Z,3.10
2018-06-19T20:49:58.874Z,3.43
2018-06-19T20:52:27.061Z,3.60
2018-06-19T20:54:55.266Z,2.93
2018-06-19T20:57:23.441Z,4.40
2018-06-19T20:59:51.893Z,3.20
2018-06-19T21:02:20.038Z,3.80
2018-06-19T21:04:48.594Z,3.30
2018-06-19T21:07:16.778Z,3.70
2018-06-19T21:09:44.930Z,3.17
2018-06-19T21:12:13.152Z,4.13
2018-06-19T21:14:41.165Z,3.00
2018-06-19T21:17:09.335Z,3.30
2018-06-19T21:19:37.550Z,3.70
2018-06-19T21:22:05.802Z,3.63
2018-06-19T21:24:35.262Z,3.60
2018-06-19T21:27:03.424Z,3.70
2018-06-19T21:29:31.613Z,3.80
2018-06-19T21:31:59.809Z,4.50
2018-06-19T21:34:27.959Z,4.00
2018-06-19T21:36:56.120Z,4.20
2018-06-19T21:39:24.505Z,4.10
2018-06-19T21:41:52.677Z,3.90
2018-06-19T21:44:22.339Z,3.83
2018-06-19T21:46:50.567Z,3.40
2018-06-19T21:49:18.689Z,3.63
2018-06-19T21:51:46.984Z,4.00
2018-06-19T21:54:15.379Z,3.73
2018-06-19T21:56:44.566Z,4.17
2018-06-19T21:59:13.203Z,3.27
2018-06-19T22:01:41.515Z,5.23
2018-06-19T22:04:09.838Z,4.00
2018-06-19T22:06:38.952Z,3.83
2018-06-19T22:09:07.179Z,3.90
2018-06-19T22:11:35.418Z,3.20
2018-06-19T22:14:03.417Z,4.40
2018-06-19T22:16:33.823Z,4.20
2018-06-19T22:19:03.905Z,3.77
2018-06-19T22:21:32.150Z,3.47
2018-06-19T22:24:00.469Z,4.90
2018-06-19T22:26:28.667Z,5.30
2018-06-19T22:28:56.863Z,8.03
2018-06-19T22:31:25.065Z,5.00
2018-06-19T22:33:53.275Z,3.97
2018-06-19T22:36:22.016Z,3.97
2018-06-19T22:38:50.435Z,3.93
2018-06-19T22:41:19.358Z,4.27
2018-06-19T22:43:47.315Z,4.17
2018-06-19T22:46:15.305Z,3.80
2018-06-19T22:48:43.471Z,4.03
2018-06-19T22:51:11.439Z,4.43
2018-06-19T22:53:39.625Z,4.43
2018-06-19T22:56:07.840Z,4.30
2018-06-19T22:58:35.963Z,4.77
2018-06-19T23:01:06.158Z,4.57
2018-06-19T23:03:34.464Z,3.93
2018-06-19T23:06:02.683Z,4.50
2018-06-19T23:08:33.887Z,4.20
2018-06-19T23:11:02.247Z,3.83
2018-06-19T23:13:31.013Z,4.27
2018-06-19T23:15:59.268Z,5.03
2018-06-19T23:18:27.447Z,5.13
2018-06-19T23:20:55.639Z,4.27
2018-06-19T23:23:25.826Z,4.07
2018-06-19T23:25:54.069Z,5.00
2018-06-19T23:28:22.215Z,4.60
2018-06-19T23:30:50.489Z,4.60
2018-06-19T23:33:18.855Z,4.43
2018-06-19T23:35:47.049Z,4.37
2018-06-19T23:38:15.481Z,4.30
2018-06-19T23:40:45.295Z,4.20
2018-06-19T23:43:13.664Z,4.10
2018-06-19T23:45:41.812Z,5.30
2018-06-19T23:48:09.959Z,4.87
2018-06-19T23:50:38.121Z,4.90
2018-06-19T23:53:06.337Z,4.50
2018-06-19T23:55:34.580Z,4.40
2018-06-19T23:58:02.720Z,4.90
